sensor_id;sensor_type;location;lat;lon;timestamp;P1;durP1;ratioP1;P2;durP2;ratioP2
7879;SDS011;3985;49.366;2.738;2023-06-10T00:01:06;14.75;;;14.25;;
7879;SDS011;3985;49.366;2.738;2023-06-10T00:03:33;15.75;;;14.00;;
7879;SDS011;3985;49.366;2.738;2023-06-10T00:06:01;14.00;;;14.00;;
7879;SDS011;3985;49.366;2.738;2023-06-10T00:08:30;16.25;;;14.75;;
7879;SDS011;3985;49.366;2.738;2023-06-10T00:10:58;16.00;;;16.00;;
7879;SDS011;3985;49.366;2.738;2023-06-10T00:13:25;14.00;;;13.25;;
7879;SDS011;3985;49.366;2.738;2023-06-10T00:15:52;16.25;;;16.25;;
7879;SDS011;3985;49.366;2.738;2023-06-10T00:18:20;15.00;;;15.00;;
7879;SDS011;3985;49.366;2.738;2023-06-10T00:20:47;12.00;;;12.00;;
7879;SDS011;3985;49.366;2.738;2023-06-10T00:23:18;14.75;;;14.50;;
7879;SDS011;3985;49.366;2.738;2023-06-10T00:25:46;16.25;;;14.50;;
7879;SDS011;3985;49.366;2.738;2023-06-10T00:28:13;14.75;;;14.00;;
7879;SDS011;3985;49.366;2.738;2023-06-10T00:30:41;11.25;;;11.25;;
7879;SDS011;3985;49.366;2.738;2023-06-10T00:33:08;14.00;;;13.25;;
7879;SDS011;3985;49.366;2.738;2023-06-10T00:35:35;17.00;;;16.00;;
7879;SDS011;3985;49.366;2.738;2023-06-10T00:38:02;17.00;;;15.75;;
7879;SDS011;3985;49.366;2.738;2023-06-10T00:40:29;16.75;;;16.75;;
7879;SDS011;3985;49.366;2.738;2023-06-10T00:42:58;15.50;;;14.75;;
7879;SDS011;3985;49.366;2.738;2023-06-10T00:45:25;17.25;;;15.75;;
7879;SDS011;3985;49.366;2.738;2023-06-10T00:47:53;17.25;;;15.25;;
7879;SDS011;3985;49.366;2.738;2023-06-10T00:50:20;16.00;;;16.00;;
7879;SDS011;3985;49.366;2.738;2023-06-10T00:52:47;17.50;;;17.50;;
7879;SDS011;3985;49.366;2.738;2023-06-10T00:55:16;16.00;;;15.75;;
7879;SDS011;3985;49.366;2.738;2023-06-10T00:57:44;16.25;;;16.25;;
7879;SDS011;3985;49.366;2.738;2023-06-10T01:00:15;21.75;;;21.75;;
7879;SDS011;3985;49.366;2.738;2023-06-10T01:02:45;13.75;;;12.25;;
7879;SDS011;3985;49.366;2.738;2023-06-10T01:05:17;20.25;;;20.25;;
7879;SDS011;3985;49.366;2.738;2023-06-10T01:07:47;15.00;;;14.50;;
7879;SDS011;3985;49.366;2.738;2023-06-10T01:10:20;19.25;;;19.25;;
7879;SDS011;3985;49.366;2.738;2023-06-10T01:12:52;15.50;;;15.50;;
7879;SDS011;3985;49.366;2.738;2023-06-10T01:15:28;15.50;;;15.50;;
7879;SDS011;3985;49.366;2.738;2023-06-10T01:17:57;17.75;;;17.75;;
7879;SDS011;3985;49.366;2.738;2023-06-10T01:20:27;21.00;;;19.25;;
7879;SDS011;3985;49.366;2.738;2023-06-10T01:22:58;18.00;;;18.00;;
7879;SDS011;3985;49.366;2.738;2023-06-10T01:25:28;17.25;;;17.25;;
7879;SDS011;3985;49.366;2.738;2023-06-10T01:27:59;15.75;;;15.75;;
7879;SDS011;3985;49.366;2.738;2023-06-10T01:30:31;17.00;;;17.00;;
7879;SDS011;3985;49.366;2.738;2023-06-10T01:33:03;17.75;;;17.75;;
7879;SDS011;3985;49.366;2.738;2023-06-10T01:35:33;17.50;;;17.50;;
7879;SDS011;3985;49.366;2.738;2023-06-10T01:38:05;17.25;;;15.50;;
7879;SDS011;3985;49.366;2.738;2023-06-10T01:40:33;16.75;;;16.25;;
7879;SDS011;3985;49.366;2.738;2023-06-10T01:43:01;16.50;;;15.75;;
7879;SDS011;3985;49.366;2.738;2023-06-10T01:45:31;18.75;;;17.50;;
7879;SDS011;3985;49.366;2.738;2023-06-10T01:47:58;21.00;;;20.00;;
7879;SDS011;3985;49.366;2.738;2023-06-10T01:50:25;18.50;;;16.75;;
7879;SDS011;3985;49.366;2.738;2023-06-10T01:52:52;17.00;;;15.00;;
7879;SDS011;3985;49.366;2.738;2023-06-10T01:55:21;17.25;;;15.75;;
7879;SDS011;3985;49.366;2.738;2023-06-10T01:57:48;19.50;;;19.50;;
7879;SDS011;3985;49.366;2.738;2023-06-10T02:00:19;19.75;;;19.75;;
7879;SDS011;3985;49.366;2.738;2023-06-10T02:02:47;16.75;;;16.75;;
7879;SDS011;3985;49.366;2.738;2023-06-10T02:05:14;18.50;;;18.50;;
7879;SDS011;3985;49.366;2.738;2023-06-10T02:07:41;19.50;;;19.00;;
7879;SDS011;3985;49.366;2.738;2023-06-10T02:10:09;18.75;;;18.75;;
7879;SDS011;3985;49.366;2.738;2023-06-10T02:12:37;14.00;;;14.00;;
7879;SDS011;3985;49.366;2.738;2023-06-10T02:15:05;19.50;;;18.00;;
7879;SDS011;3985;49.366;2.738;2023-06-10T02:17:32;18.00;;;17.00;;
7879;SDS011;3985;49.366;2.738;2023-06-10T02:19:59;23.75;;;20.25;;
7879;SDS011;3985;49.366;2.738;2023-06-10T02:22:32;20.75;;;19.00;;
7879;SDS011;3985;49.366;2.738;2023-06-10T02:24:59;17.25;;;17.25;;
7879;SDS011;3985;49.366;2.738;2023-06-10T02:27:27;18.25;;;18.25;;
7879;SDS011;3985;49.366;2.738;2023-06-10T02:29:55;18.25;;;18.25;;
7879;SDS011;3985;49.366;2.738;2023-06-10T02:32:23;19.00;;;19.00;;
7879;SDS011;3985;49.366;2.738;2023-06-10T02:34:50;15.50;;;15.50;;
7879;SDS011;3985;49.366;2.738;2023-06-10T02:37:18;16.50;;;16.00;;
7879;SDS011;3985;49.366;2.738;2023-06-10T02:39:45;18.25;;;18.25;;
7879;SDS011;3985;49.366;2.738;2023-06-10T02:42:13;16.75;;;15.75;;
7879;SDS011;3985;49.366;2.738;2023-06-10T02:44:40;17.75;;;16.50;;
7879;SDS011;3985;49.366;2.738;2023-06-10T02:47:09;20.25;;;18.75;;
7879;SDS011;3985;49.366;2.738;2023-06-10T02:49:36;19.00;;;16.00;;
7879;SDS011;3985;49.366;2.738;2023-06-10T02:52:03;14.25;;;14.00;;
7879;SDS011;3985;49.366;2.738;2023-06-10T02:54:32;19.00;;;19.00;;
7879;SDS011;3985;49.366;2.738;2023-06-10T02:57:00;20.00;;;20.00;;
7879;SDS011;3985;49.366;2.738;2023-06-10T02:59:28;15.00;;;15.00;;
7879;SDS011;3985;49.366;2.738;2023-06-10T03:01:55;20.25;;;19.25;;
7879;SDS011;3985;49.366;2.738;2023-06-10T03:04:24;20.00;;;20.00;;
7879;SDS011;3985;49.366;2.738;2023-06-10T03:06:54;20.25;;;18.75;;
7879;SDS011;3985;49.366;2.738;2023-06-10T03:09:21;19.25;;;18.75;;
7879;SDS011;3985;49.366;2.738;2023-06-10T03:11:48;17.75;;;17.75;;
7879;SDS011;3985;49.366;2.738;2023-06-10T03:14:15;18.25;;;17.00;;
7879;SDS011;3985;49.366;2.738;2023-06-10T03:16:42;17.50;;;17.50;;
7879;SDS011;3985;49.366;2.738;2023-06-10T03:19:10;22.00;;;20.75;;
7879;SDS011;3985;49.366;2.738;2023-06-10T03:21:43;16.00;;;16.00;;
7879;SDS011;3985;49.366;2.738;2023-06-10T03:24:11;20.25;;;20.25;;
7879;SDS011;3985;49.366;2.738;2023-06-10T03:26:38;16.25;;;16.25;;
7879;SDS011;3985;49.366;2.738;2023-06-10T03:29:05;16.25;;;16.25;;
7879;SDS011;3985;49.366;2.738;2023-06-10T03:31:33;12.25;;;12.25;;
7879;SDS011;3985;49.366;2.738;2023-06-10T03:34:01;18.25;;;18.25;;
7879;SDS011;3985;49.366;2.738;2023-06-10T03:36:28;19.50;;;19.25;;
7879;SDS011;3985;49.366;2.738;2023-06-10T03:39:00;18.50;;;17.75;;
7879;SDS011;3985;49.366;2.738;2023-06-10T03:41:27;18.50;;;18.50;;
7879;SDS011;3985;49.366;2.738;2023-06-10T03:43:55;15.75;;;15.75;;
7879;SDS011;3985;49.366;2.738;2023-06-10T03:46:22;15.25;;;14.00;;
7879;SDS011;3985;49.366;2.738;2023-06-10T03:48:52;19.50;;;15.00;;
7879;SDS011;3985;49.366;2.738;2023-06-10T03:51:19;20.50;;;20.50;;
7879;SDS011;3985;49.366;2.738;2023-06-10T03:53:49;15.50;;;15.50;;
7879;SDS011;3985;49.366;2.738;2023-06-10T03:56:17;21.00;;;21.00;;
7879;SDS011;3985;49.366;2.738;2023-06-10T03:58:45;19.25;;;17.75;;
7879;SDS011;3985;49.366;2.738;2023-06-10T04:01:12;15.33;;;15.33;;
7879;SDS011;3985;49.366;2.738;2023-06-10T04:03:39;19.00;;;19.00;;
7879;SDS011;3985;49.366;2.738;2023-06-10T04:06:06;20.00;;;20.00;;
7879;SDS011;3985;49.366;2.738;2023-06-10T04:08:34;23.00;;;19.50;;
7879;SDS011;3985;49.366;2.738;2023-06-10T04:11:02;19.75;;;19.00;;
7879;SDS011;3985;49.366;2.738;2023-06-10T04:13:30;19.25;;;19.25;;
7879;SDS011;3985;49.366;2.738;2023-06-10T04:15:58;16.75;;;16.75;;
7879;SDS011;3985;49.366;2.738;2023-06-10T04:18:25;23.50;;;21.00;;
7879;SDS011;3985;49.366;2.738;2023-06-10T04:20:52;20.00;;;19.75;;
7879;SDS011;3985;49.366;2.738;2023-06-10T04:23:20;19.25;;;19.00;;
7879;SDS011;3985;49.366;2.738;2023-06-10T04:25:48;19.25;;;19.25;;
7879;SDS011;3985;49.366;2.738;2023-06-10T04:28:15;18.75;;;18.75;;
7879;SDS011;3985;49.366;2.738;2023-06-10T04:30:43;22.75;;;21.00;;
7879;SDS011;3985;49.366;2.738;2023-06-10T04:33:11;20.75;;;19.75;;
7879;SDS011;3985;49.366;2.738;2023-06-10T04:35:38;17.75;;;17.75;;
7879;SDS011;3985;49.366;2.738;2023-06-10T04:38:05;18.00;;;18.00;;
7879;SDS011;3985;49.366;2.738;2023-06-10T04:40:33;20.25;;;18.25;;
7879;SDS011;3985;49.366;2.738;2023-06-10T04:43:00;19.50;;;18.00;;
7879;SDS011;3985;49.366;2.738;2023-06-10T04:45:27;20.00;;;20.00;;
7879;SDS011;3985;49.366;2.738;2023-06-10T04:47:56;17.25;;;17.25;;
7879;SDS011;3985;49.366;2.738;2023-06-10T04:50:24;22.00;;;19.50;;
7879;SDS011;3985;49.366;2.738;2023-06-10T04:52:51;17.00;;;17.00;;
7879;SDS011;3985;49.366;2.738;2023-06-10T04:55:22;17.75;;;16.75;;
7879;SDS011;3985;49.366;2.738;2023-06-10T04:57:50;24.75;;;19.25;;
7879;SDS011;3985;49.366;2.738;2023-06-10T05:00:22;21.75;;;19.75;;
7879;SDS011;3985;49.366;2.738;2023-06-10T05:02:49;18.75;;;18.75;;
7879;SDS011;3985;49.366;2.738;2023-06-10T05:05:18;20.00;;;19.50;;
7879;SDS011;3985;49.366;2.738;2023-06-10T05:07:45;19.50;;;19.50;;
7879;SDS011;3985;49.366;2.738;2023-06-10T05:10:15;23.50;;;22.50;;
7879;SDS011;3985;49.366;2.738;2023-06-10T05:12:43;21.50;;;19.50;;
7879;SDS011;3985;49.366;2.738;2023-06-10T05:15:10;18.25;;;18.25;;
7879;SDS011;3985;49.366;2.738;2023-06-10T05:17:38;16.00;;;15.75;;
7879;SDS011;3985;49.366;2.738;2023-06-10T05:20:05;22.00;;;20.25;;
7879;SDS011;3985;49.366;2.738;2023-06-10T05:22:34;17.50;;;15.50;;
7879;SDS011;3985;49.366;2.738;2023-06-10T05:25:01;19.75;;;18.75;;
7879;SDS011;3985;49.366;2.738;2023-06-10T05:27:31;18.00;;;18.00;;
7879;SDS011;3985;49.366;2.738;2023-06-10T05:29:58;15.75;;;15.75;;
7879;SDS011;3985;49.366;2.738;2023-06-10T05:32:26;22.00;;;18.50;;
7879;SDS011;3985;49.366;2.738;2023-06-10T05:34:53;14.50;;;14.50;;
7879;SDS011;3985;49.366;2.738;2023-06-10T05:37:20;16.25;;;16.25;;
7879;SDS011;3985;49.366;2.738;2023-06-10T05:39:49;18.00;;;17.25;;
7879;SDS011;3985;49.366;2.738;2023-06-10T05:42:16;16.75;;;16.75;;
7879;SDS011;3985;49.366;2.738;2023-06-10T05:44:44;18.75;;;16.00;;
7879;SDS011;3985;49.366;2.738;2023-06-10T05:47:11;19.25;;;17.50;;
7879;SDS011;3985;49.366;2.738;2023-06-10T05:49:38;18.75;;;17.50;;
7879;SDS011;3985;49.366;2.738;2023-06-10T05:52:06;15.75;;;15.50;;
7879;SDS011;3985;49.366;2.738;2023-06-10T05:54:33;15.75;;;15.75;;
7879;SDS011;3985;49.366;2.738;2023-06-10T05:57:05;16.75;;;16.75;;
7879;SDS011;3985;49.366;2.738;2023-06-10T05:59:35;17.50;;;17.25;;
7879;SDS011;3985;49.366;2.738;2023-06-10T06:02:03;17.00;;;16.00;;
7879;SDS011;3985;49.366;2.738;2023-06-10T06:04:31;13.00;;;13.00;;
7879;SDS011;3985;49.366;2.738;2023-06-10T06:06:58;18.75;;;16.50;;
7879;SDS011;3985;49.366;2.738;2023-06-10T06:09:25;16.50;;;16.50;;
7879;SDS011;3985;49.366;2.738;2023-06-10T06:11:53;14.75;;;14.75;;
7879;SDS011;3985;49.366;2.738;2023-06-10T06:14:21;16.50;;;16.50;;
7879;SDS011;3985;49.366;2.738;2023-06-10T06:16:49;17.75;;;16.00;;
7879;SDS011;3985;49.366;2.738;2023-06-10T06:19:19;14.25;;;14.25;;
7879;SDS011;3985;49.366;2.738;2023-06-10T06:21:46;12.50;;;12.50;;
7879;SDS011;3985;49.366;2.738;2023-06-10T06:24:16;12.25;;;12.25;;
7879;SDS011;3985;49.366;2.738;2023-06-10T06:26:44;21.00;;;18.00;;
7879;SDS011;3985;49.366;2.738;2023-06-10T06:29:17;16.75;;;16.75;;
7879;SDS011;3985;49.366;2.738;2023-06-10T06:31:46;16.25;;;16.25;;
7879;SDS011;3985;49.366;2.738;2023-06-10T06:34:19;15.75;;;15.50;;
7879;SDS011;3985;49.366;2.738;2023-06-10T06:36:49;16.00;;;15.50;;
7879;SDS011;3985;49.366;2.738;2023-06-10T06:39:20;15.25;;;15.25;;
7879;SDS011;3985;49.366;2.738;2023-06-10T06:41:48;15.40;;;15.00;;
7879;SDS011;3985;49.366;2.738;2023-06-10T06:44:15;17.00;;;15.60;;
7879;SDS011;3985;49.366;2.738;2023-06-10T06:46:43;18.00;;;16.60;;
7879;SDS011;3985;49.366;2.738;2023-06-10T06:49:11;14.80;;;14.80;;
7879;SDS011;3985;49.366;2.738;2023-06-10T06:51:40;12.40;;;12.40;;
7879;SDS011;3985;49.366;2.738;2023-06-10T06:54:08;11.00;;;11.00;;
7879;SDS011;3985;49.366;2.738;2023-06-10T06:56:36;16.00;;;15.60;;
7879;SDS011;3985;49.366;2.738;2023-06-10T06:59:06;13.40;;;13.40;;
7879;SDS011;3985;49.366;2.738;2023-06-10T07:01:33;10.00;;;10.00;;
7879;SDS011;3985;49.366;2.738;2023-06-10T07:04:00;16.00;;;15.00;;
7879;SDS011;3985;49.366;2.738;2023-06-10T07:06:29;15.00;;;14.20;;
7879;SDS011;3985;49.366;2.738;2023-06-10T07:08:56;14.20;;;14.20;;
7879;SDS011;3985;49.366;2.738;2023-06-10T07:11:26;13.80;;;13.80;;
7879;SDS011;3985;49.366;2.738;2023-06-10T07:13:54;12.80;;;12.80;;
7879;SDS011;3985;49.366;2.738;2023-06-10T07:16:23;15.00;;;15.00;;
7879;SDS011;3985;49.366;2.738;2023-06-10T07:18:52;11.40;;;11.40;;
7879;SDS011;3985;49.366;2.738;2023-06-10T07:21:19;13.60;;;13.60;;
7879;SDS011;3985;49.366;2.738;2023-06-10T07:23:49;11.20;;;11.20;;
7879;SDS011;3985;49.366;2.738;2023-06-10T07:26:18;11.40;;;11.40;;
7879;SDS011;3985;49.366;2.738;2023-06-10T07:28:45;13.20;;;11.80;;
7879;SDS011;3985;49.366;2.738;2023-06-10T07:31:15;11.80;;;11.80;;
7879;SDS011;3985;49.366;2.738;2023-06-10T07:33:43;12.80;;;11.80;;
7879;SDS011;3985;49.366;2.738;2023-06-10T07:36:10;9.00;;;9.00;;
7879;SDS011;3985;49.366;2.738;2023-06-10T07:38:38;13.80;;;12.00;;
7879;SDS011;3985;49.366;2.738;2023-06-10T07:41:11;10.40;;;10.40;;
7879;SDS011;3985;49.366;2.738;2023-06-10T07:43:44;8.40;;;8.40;;
7879;SDS011;3985;49.366;2.738;2023-06-10T07:46:13;10.00;;;9.80;;
7879;SDS011;3985;49.366;2.738;2023-06-10T07:48:42;9.80;;;9.00;;
7879;SDS011;3985;49.366;2.738;2023-06-10T07:51:10;10.20;;;10.20;;
7879;SDS011;3985;49.366;2.738;2023-06-10T07:53:39;9.60;;;9.20;;
7879;SDS011;3985;49.366;2.738;2023-06-10T07:56:06;8.00;;;8.00;;
7879;SDS011;3985;49.366;2.738;2023-06-10T07:58:37;8.20;;;8.20;;
7879;SDS011;3985;49.366;2.738;2023-06-10T08:01:05;10.20;;;10.20;;
7879;SDS011;3985;49.366;2.738;2023-06-10T08:03:35;8.40;;;8.40;;
7879;SDS011;3985;49.366;2.738;2023-06-10T08:06:03;9.40;;;7.80;;
7879;SDS011;3985;49.366;2.738;2023-06-10T08:08:32;7.80;;;6.00;;
7879;SDS011;3985;49.366;2.738;2023-06-10T08:11:05;7.20;;;7.20;;
7879;SDS011;3985;49.366;2.738;2023-06-10T08:13:34;6.00;;;6.00;;
7879;SDS011;3985;49.366;2.738;2023-06-10T08:16:01;7.00;;;5.40;;
7879;SDS011;3985;49.366;2.738;2023-06-10T08:18:28;6.60;;;6.60;;
7879;SDS011;3985;49.366;2.738;2023-06-10T08:20:56;4.60;;;2.60;;
7879;SDS011;3985;49.366;2.738;2023-06-10T08:23:23;7.00;;;5.00;;
7879;SDS011;3985;49.366;2.738;2023-06-10T08:25:50;7.00;;;7.00;;
7879;SDS011;3985;49.366;2.738;2023-06-10T08:28:19;6.80;;;5.00;;
7879;SDS011;3985;49.366;2.738;2023-06-10T08:30:48;5.80;;;5.80;;
7879;SDS011;3985;49.366;2.738;2023-06-10T08:33:20;5.80;;;5.80;;
7879;SDS011;3985;49.366;2.738;2023-06-10T08:35:50;6.20;;;6.20;;
7879;SDS011;3985;49.366;2.738;2023-06-10T08:38:20;6.60;;;6.60;;
7879;SDS011;3985;49.366;2.738;2023-06-10T08:40:47;7.00;;;7.00;;
7879;SDS011;3985;49.366;2.738;2023-06-10T08:43:17;5.40;;;5.40;;
7879;SDS011;3985;49.366;2.738;2023-06-10T08:45:59;6.00;;;6.00;;
7879;SDS011;3985;49.366;2.738;2023-06-10T08:48:28;5.20;;;5.20;;
7879;SDS011;3985;49.366;2.738;2023-06-10T08:50:56;5.60;;;4.60;;
7879;SDS011;3985;49.366;2.738;2023-06-10T08:53:24;5.60;;;4.60;;
7879;SDS011;3985;49.366;2.738;2023-06-10T08:55:53;2.20;;;2.20;;
7879;SDS011;3985;49.366;2.738;2023-06-10T08:58:26;6.00;;;6.00;;
7879;SDS011;3985;49.366;2.738;2023-06-10T09:00:59;4.20;;;4.20;;
7879;SDS011;3985;49.366;2.738;2023-06-10T09:03:29;3.20;;;3.20;;
7879;SDS011;3985;49.366;2.738;2023-06-10T09:06:00;5.80;;;5.00;;
7879;SDS011;3985;49.366;2.738;2023-06-10T09:08:30;3.00;;;3.00;;
7879;SDS011;3985;49.366;2.738;2023-06-10T09:11:00;3.80;;;3.80;;
7879;SDS011;3985;49.366;2.738;2023-06-10T09:13:27;6.00;;;6.00;;
7879;SDS011;3985;49.366;2.738;2023-06-10T09:15:55;6.80;;;6.80;;
7879;SDS011;3985;49.366;2.738;2023-06-10T09:18:27;6.00;;;6.00;;
7879;SDS011;3985;49.366;2.738;2023-06-10T09:20:54;6.00;;;6.00;;
7879;SDS011;3985;49.366;2.738;2023-06-10T09:23:25;4.00;;;4.00;;
7879;SDS011;3985;49.366;2.738;2023-06-10T09:25:58;5.00;;;5.00;;
7879;SDS011;3985;49.366;2.738;2023-06-10T09:28:25;4.80;;;3.20;;
7879;SDS011;3985;49.366;2.738;2023-06-10T09:31:01;5.80;;;5.00;;
7879;SDS011;3985;49.366;2.738;2023-06-10T09:33:31;3.00;;;3.00;;
7879;SDS011;3985;49.366;2.738;2023-06-10T09:35:59;3.00;;;3.00;;
7879;SDS011;3985;49.366;2.738;2023-06-10T09:38:31;4.40;;;3.00;;
7879;SDS011;3985;49.366;2.738;2023-06-10T09:40:59;3.80;;;3.80;;
7879;SDS011;3985;49.366;2.738;2023-06-10T09:43:38;5.00;;;5.00;;
7879;SDS011;3985;49.366;2.738;2023-06-10T09:46:14;3.00;;;3.00;;
7879;SDS011;3985;49.366;2.738;2023-06-10T09:48:44;3.00;;;3.00;;
7879;SDS011;3985;49.366;2.738;2023-06-10T09:51:13;2.40;;;2.40;;
7879;SDS011;3985;49.366;2.738;2023-06-10T09:53:47;6.40;;;2.00;;
7879;SDS011;3985;49.366;2.738;2023-06-10T09:56:18;4.60;;;2.80;;
7879;SDS011;3985;49.366;2.738;2023-06-10T09:58:46;3.00;;;3.00;;
7879;SDS011;3985;49.366;2.738;2023-06-10T10:01:16;8.40;;;8.40;;
7879;SDS011;3985;49.366;2.738;2023-06-10T10:03:45;12.80;;;12.80;;
7879;SDS011;3985;49.366;2.738;2023-06-10T10:06:17;3.40;;;3.40;;
7879;SDS011;3985;49.366;2.738;2023-06-10T10:08:46;2.80;;;2.80;;
7879;SDS011;3985;49.366;2.738;2023-06-10T10:11:16;4.60;;;4.00;;
7879;SDS011;3985;49.366;2.738;2023-06-10T10:13:46;3.20;;;3.20;;
7879;SDS011;3985;49.366;2.738;2023-06-10T10:16:15;2.80;;;2.80;;
7879;SDS011;3985;49.366;2.738;2023-06-10T10:18:49;4.80;;;4.80;;
7879;SDS011;3985;49.366;2.738;2023-06-10T10:21:22;4.00;;;3.00;;
7879;SDS011;3985;49.366;2.738;2023-06-10T10:23:53;5.80;;;5.80;;
7879;SDS011;3985;49.366;2.738;2023-06-10T10:26:25;4.80;;;4.80;;
7879;SDS011;3985;49.366;2.738;2023-06-10T10:28:58;2.80;;;2.80;;
7879;SDS011;3985;49.366;2.738;2023-06-10T10:31:34;2.40;;;2.40;;
7879;SDS011;3985;49.366;2.738;2023-06-10T10:34:04;4.20;;;4.20;;
7879;SDS011;3985;49.366;2.738;2023-06-10T10:36:36;4.00;;;4.00;;
7879;SDS011;3985;49.366;2.738;2023-06-10T10:39:04;4.00;;;4.00;;
7879;SDS011;3985;49.366;2.738;2023-06-10T10:41:32;4.60;;;4.60;;
7879;SDS011;3985;49.366;2.738;2023-06-10T10:44:00;5.00;;;5.00;;
7879;SDS011;3985;49.366;2.738;2023-06-10T10:46:30;4.60;;;3.60;;
7879;SDS011;3985;49.366;2.738;2023-06-10T10:48:57;5.00;;;4.40;;
7879;SDS011;3985;49.366;2.738;2023-06-10T10:51:29;3.00;;;3.00;;
7879;SDS011;3985;49.366;2.738;2023-06-10T10:54:09;6.20;;;4.20;;
7879;SDS011;3985;49.366;2.738;2023-06-10T10:56:39;4.20;;;3.00;;
7879;SDS011;3985;49.366;2.738;2023-06-10T11:02:36;5.00;;;5.00;;
7879;SDS011;3985;49.366;2.738;2023-06-10T11:05:10;4.80;;;4.80;;
7879;SDS011;3985;49.366;2.738;2023-06-10T11:07:51;3.80;;;3.80;;
7879;SDS011;3985;49.366;2.738;2023-06-10T11:10:28;4.00;;;4.00;;
7879;SDS011;3985;49.366;2.738;2023-06-10T11:12:56;2.00;;;2.00;;
7879;SDS011;3985;49.366;2.738;2023-06-10T11:15:24;7.40;;;6.20;;
7879;SDS011;3985;49.366;2.738;2023-06-10T11:18:10;4.00;;;4.00;;
7879;SDS011;3985;49.366;2.738;2023-06-10T11:20:57;3.20;;;3.20;;
7879;SDS011;3985;49.366;2.738;2023-06-10T11:23:38;5.20;;;5.20;;
7879;SDS011;3985;49.366;2.738;2023-06-10T11:26:09;4.00;;;4.00;;
7879;SDS011;3985;49.366;2.738;2023-06-10T11:31:45;4.40;;;4.40;;
7879;SDS011;3985;49.366;2.738;2023-06-10T11:34:15;5.00;;;5.00;;
7879;SDS011;3985;49.366;2.738;2023-06-10T11:36:51;5.20;;;5.20;;
7879;SDS011;3985;49.366;2.738;2023-06-10T11:39:21;6.00;;;6.00;;
7879;SDS011;3985;49.366;2.738;2023-06-10T11:41:51;6.00;;;6.00;;
7879;SDS011;3985;49.366;2.738;2023-06-10T11:44:21;7.00;;;5.00;;
7879;SDS011;3985;49.366;2.738;2023-06-10T11:46:49;5.20;;;5.20;;
7879;SDS011;3985;49.366;2.738;2023-06-10T11:49:16;5.80;;;5.80;;
7879;SDS011;3985;49.366;2.738;2023-06-10T11:51:44;4.80;;;4.80;;
7879;SDS011;3985;49.366;2.738;2023-06-10T11:54:16;6.60;;;6.60;;
7879;SDS011;3985;49.366;2.738;2023-06-10T11:56:45;5.20;;;5.20;;
7879;SDS011;3985;49.366;2.738;2023-06-10T11:59:16;6.40;;;5.20;;
7879;SDS011;3985;49.366;2.738;2023-06-10T12:01:44;7.20;;;5.40;;
7879;SDS011;3985;49.366;2.738;2023-06-10T12:04:13;4.60;;;3.80;;
7879;SDS011;3985;49.366;2.738;2023-06-10T12:06:43;6.00;;;6.00;;
7879;SDS011;3985;49.366;2.738;2023-06-10T12:09:16;6.60;;;6.60;;
7879;SDS011;3985;49.366;2.738;2023-06-10T12:11:47;6.00;;;6.00;;
7879;SDS011;3985;49.366;2.738;2023-06-10T12:14:16;5.40;;;5.40;;
7879;SDS011;3985;49.366;2.738;2023-06-10T12:16:58;5.00;;;5.00;;
7879;SDS011;3985;49.366;2.738;2023-06-10T12:19:28;5.40;;;5.40;;
7879;SDS011;3985;49.366;2.738;2023-06-10T12:21:55;5.20;;;5.20;;
7879;SDS011;3985;49.366;2.738;2023-06-10T12:24:25;5.60;;;5.60;;
7879;SDS011;3985;49.366;2.738;2023-06-10T12:26:54;5.00;;;5.00;;
7879;SDS011;3985;49.366;2.738;2023-06-10T12:29:22;5.00;;;5.00;;
7879;SDS011;3985;49.366;2.738;2023-06-10T12:31:54;4.00;;;4.00;;
7879;SDS011;3985;49.366;2.738;2023-06-10T12:34:28;9.00;;;7.20;;
7879;SDS011;3985;49.366;2.738;2023-06-10T12:37:00;7.40;;;7.40;;
7879;SDS011;3985;49.366;2.738;2023-06-10T12:39:29;5.40;;;5.40;;
7879;SDS011;3985;49.366;2.738;2023-06-10T12:41:58;5.40;;;5.40;;
7879;SDS011;3985;49.366;2.738;2023-06-10T12:44:29;6.40;;;6.40;;
7879;SDS011;3985;49.366;2.738;2023-06-10T12:46:57;7.20;;;7.00;;
7879;SDS011;3985;49.366;2.738;2023-06-10T12:49:24;6.60;;;6.60;;
7879;SDS011;3985;49.366;2.738;2023-06-10T12:51:54;6.60;;;6.60;;
7879;SDS011;3985;49.366;2.738;2023-06-10T12:54:23;6.80;;;6.80;;
7879;SDS011;3985;49.366;2.738;2023-06-10T12:56:51;6.40;;;6.40;;
7879;SDS011;3985;49.366;2.738;2023-06-10T12:59:19;6.00;;;6.00;;
7879;SDS011;3985;49.366;2.738;2023-06-10T13:01:49;5.40;;;5.40;;
7879;SDS011;3985;49.366;2.738;2023-06-10T13:04:19;8.60;;;7.00;;
7879;SDS011;3985;49.366;2.738;2023-06-10T13:06:48;7.40;;;7.40;;
7879;SDS011;3985;49.366;2.738;2023-06-10T13:09:15;8.00;;;6.00;;
7879;SDS011;3985;49.366;2.738;2023-06-10T13:11:43;7.60;;;6.60;;
7879;SDS011;3985;49.366;2.738;2023-06-10T13:14:13;8.20;;;6.60;;
7879;SDS011;3985;49.366;2.738;2023-06-10T13:16:44;6.80;;;6.80;;
7879;SDS011;3985;49.366;2.738;2023-06-10T13:19:12;7.00;;;7.00;;
7879;SDS011;3985;49.366;2.738;2023-06-10T13:21:39;7.40;;;7.40;;
7879;SDS011;3985;49.366;2.738;2023-06-10T13:24:06;6.40;;;6.40;;
7879;SDS011;3985;49.366;2.738;2023-06-10T13:26:34;6.40;;;6.40;;
7879;SDS011;3985;49.366;2.738;2023-06-10T13:29:01;6.80;;;6.80;;
7879;SDS011;3985;49.366;2.738;2023-06-10T13:31:29;8.40;;;8.40;;
7879;SDS011;3985;49.366;2.738;2023-06-10T13:33:58;7.00;;;7.00;;
7879;SDS011;3985;49.366;2.738;2023-06-10T13:36:26;8.40;;;8.00;;
7879;SDS011;3985;49.366;2.738;2023-06-10T13:38:54;7.20;;;7.20;;
7879;SDS011;3985;49.366;2.738;2023-06-10T13:41:22;7.00;;;7.00;;
7879;SDS011;3985;49.366;2.738;2023-06-10T13:43:53;7.20;;;7.20;;
7879;SDS011;3985;49.366;2.738;2023-06-10T13:46:23;8.00;;;8.00;;
7879;SDS011;3985;49.366;2.738;2023-06-10T13:48:51;6.00;;;6.00;;
7879;SDS011;3985;49.366;2.738;2023-06-10T13:51:20;6.00;;;6.00;;
7879;SDS011;3985;49.366;2.738;2023-06-10T13:53:47;6.20;;;6.20;;
7879;SDS011;3985;49.366;2.738;2023-06-10T13:56:17;8.80;;;8.80;;
7879;SDS011;3985;49.366;2.738;2023-06-10T13:58:44;9.40;;;8.20;;
7879;SDS011;3985;49.366;2.738;2023-06-10T14:01:11;6.60;;;6.60;;
7879;SDS011;3985;49.366;2.738;2023-06-10T14:03:39;7.60;;;7.60;;
7879;SDS011;3985;49.366;2.738;2023-06-10T14:06:06;6.40;;;6.40;;
7879;SDS011;3985;49.366;2.738;2023-06-10T14:08:35;9.20;;;7.20;;
7879;SDS011;3985;49.366;2.738;2023-06-10T14:11:02;6.00;;;6.00;;
7879;SDS011;3985;49.366;2.738;2023-06-10T14:13:30;7.80;;;7.60;;
7879;SDS011;3985;49.366;2.738;2023-06-10T14:15:58;7.80;;;7.80;;
7879;SDS011;3985;49.366;2.738;2023-06-10T14:18:27;11.60;;;8.40;;
7879;SDS011;3985;49.366;2.738;2023-06-10T14:20:55;8.40;;;8.40;;
7879;SDS011;3985;49.366;2.738;2023-06-10T14:23:22;7.40;;;7.40;;
7879;SDS011;3985;49.366;2.738;2023-06-10T14:25:54;9.00;;;9.00;;
7879;SDS011;3985;49.366;2.738;2023-06-10T14:28:23;8.80;;;8.00;;
7879;SDS011;3985;49.366;2.738;2023-06-10T14:30:52;8.60;;;8.60;;
7879;SDS011;3985;49.366;2.738;2023-06-10T14:33:22;9.80;;;9.80;;
7879;SDS011;3985;49.366;2.738;2023-06-10T14:35:50;6.20;;;6.20;;
7879;SDS011;3985;49.366;2.738;2023-06-10T14:38:17;9.40;;;8.00;;
7879;SDS011;3985;49.366;2.738;2023-06-10T14:40:44;11.60;;;7.80;;
7879;SDS011;3985;49.366;2.738;2023-06-10T14:43:13;7.80;;;7.80;;
7879;SDS011;3985;49.366;2.738;2023-06-10T14:45:40;9.20;;;8.00;;
7879;SDS011;3985;49.366;2.738;2023-06-10T14:48:12;10.60;;;10.00;;
7879;SDS011;3985;49.366;2.738;2023-06-10T14:50:39;9.20;;;9.20;;
7879;SDS011;3985;49.366;2.738;2023-06-10T14:53:10;9.00;;;9.00;;
7879;SDS011;3985;49.366;2.738;2023-06-10T14:55:37;10.60;;;9.00;;
7879;SDS011;3985;49.366;2.738;2023-06-10T14:58:07;8.80;;;8.80;;
7879;SDS011;3985;49.366;2.738;2023-06-10T15:00:36;6.60;;;6.60;;
7879;SDS011;3985;49.366;2.738;2023-06-10T15:03:03;8.00;;;8.00;;
7879;SDS011;3985;49.366;2.738;2023-06-10T15:05:30;8.00;;;8.00;;
7879;SDS011;3985;49.366;2.738;2023-06-10T15:07:58;9.00;;;7.40;;
7879;SDS011;3985;49.366;2.738;2023-06-10T15:10:25;8.40;;;7.80;;
7879;SDS011;3985;49.366;2.738;2023-06-10T15:12:55;9.80;;;8.40;;
7879;SDS011;3985;49.366;2.738;2023-06-10T15:15:24;7.40;;;7.40;;
7879;SDS011;3985;49.366;2.738;2023-06-10T15:17:53;7.60;;;7.60;;